Terminal Aerodrome Forecast
Issued by NWS

Home | Current Version | Previous Version | Text Only | Print | Product List | Glossary On
Versions: 1 2 3 4 5 6 7 8 9 10 11 12 13
000
FTUS44 KTSA 060525
TAFBVO
TAF
KBVO 060525Z 0606/0706 18006KT P6SM BKN250
     FM061200 18012KT P6SM BKN025
     FM061600 19012G20KT P6SM SCT030 BKN050
     FM062100 19010G18KT P6SM SCT050 BKN250
     FM070100 17006KT P6SM BKN250 PROB30 0702/0706 5SM -TSRA
      BKN040CB=

USA.gov is the U.S. government's official web portal to all federal, state and local government web resources and services.